createdAt,value
2022-09-01T00:00:14.850Z,16.50
2022-09-01T00:06:59.746Z,16.40
2022-09-01T00:13:42.181Z,16.20
2022-09-01T00:20:24.764Z,16.20
2022-09-01T00:27:07.189Z,16.10
2022-09-01T00:33:51.253Z,16.40
2022-09-01T00:40:34.015Z,15.80
2022-09-01T00:47:16.641Z,16.00
2022-09-01T00:54:01.363Z,16.10
2022-09-01T01:00:46.957Z,15.70
2022-09-01T01:07:29.435Z,15.80
2022-09-01T01:14:17.101Z,15.70
2022-09-01T01:21:24.688Z,15.70
2022-09-01T01:28:20.025Z,15.60
2022-09-01T01:35:06.873Z,15.50
2022-09-01T01:41:50.645Z,15.60
2022-09-01T01:48:37.988Z,15.50
2022-09-01T01:55:23.515Z,15.40
2022-09-01T02:02:09.645Z,15.30
2022-09-01T02:08:56.609Z,15.40
2022-09-01T02:15:44.382Z,15.30
2022-09-01T02:22:26.903Z,15.30
2022-09-01T02:29:18.969Z,15.20
2022-09-01T02:36:04.327Z,15.30
2022-09-01T02:42:47.921Z,15.40
2022-09-01T02:49:30.928Z,15.30
2022-09-01T02:56:14.499Z,15.20
2022-09-01T03:02:59.331Z,15.10
2022-09-01T03:09:43.218Z,15.10
2022-09-01T03:16:25.731Z,15.10
2022-09-01T03:23:10.782Z,15.00
2022-09-01T03:29:53.218Z,14.80
2022-09-01T03:36:35.679Z,14.80
2022-09-01T03:43:19.959Z,14.80
2022-09-01T03:50:02.378Z,14.80
2022-09-01T03:56:45.447Z,14.80
2022-09-01T04:03:34.551Z,14.90
2022-09-01T04:10:19.054Z,14.90
2022-09-01T04:17:20.126Z,14.90
2022-09-01T04:24:05.152Z,14.80
2022-09-01T04:30:48.623Z,14.70
2022-09-01T04:37:36.476Z,14.70
2022-09-01T04:44:19.450Z,14.80
2022-09-01T04:51:01.870Z,14.80
2022-09-01T04:57:49.489Z,14.80
2022-09-01T05:04:34.011Z,14.80
2022-09-01T05:11:17.770Z,14.70
2022-09-01T05:18:09.908Z,14.80
2022-09-01T05:24:54.999Z,15.00
2022-09-01T05:31:38.783Z,15.20
2022-09-01T05:38:21.827Z,15.20
2022-09-01T05:45:04.753Z,15.40
2022-09-01T05:51:51.003Z,15.60
2022-09-01T06:05:40.888Z,15.70
2022-09-01T06:12:27.993Z,15.90
2022-09-01T06:19:12.559Z,16.20
2022-09-01T06:25:59.797Z,16.80
2022-09-01T06:32:45.352Z,17.10
2022-09-01T06:39:27.848Z,17.20
2022-09-01T06:46:10.687Z,17.90
2022-09-01T07:00:18.747Z,19.20
2022-09-01T07:07:54.190Z,19.50
2022-09-01T07:14:27.106Z,19.40
2022-09-01T07:21:38.796Z,19.90
2022-09-01T07:28:17.100Z,21.20
2022-09-01T07:35:00.882Z,21.70
2022-09-01T07:50:09.764Z,24.00
2022-09-01T07:56:23.571Z,24.90
2022-09-01T08:03:07.119Z,25.50
2022-09-01T08:09:49.924Z,24.30
2022-09-01T08:16:39.457Z,24.00
2022-09-01T08:23:26.824Z,24.50
2022-09-01T08:30:13.088Z,24.00
2022-09-01T08:36:56.276Z,23.80
2022-09-01T08:43:57.554Z,22.70
2022-09-01T08:50:41.167Z,22.00
2022-09-01T08:57:53.851Z,22.30
2022-09-01T09:05:22.953Z,22.80
2022-09-01T09:12:24.564Z,22.70
2022-09-01T09:19:25.446Z,22.60
2022-09-01T09:26:08.338Z,22.40
2022-09-01T09:33:37.248Z,22.60
2022-09-01T09:40:17.368Z,22.50
2022-09-01T09:47:00.626Z,22.50
2022-09-01T09:53:43.258Z,22.50
2022-09-01T10:00:34.255Z,22.70
2022-09-01T10:07:46.418Z,22.80
2022-09-01T10:14:53.344Z,23.10
2022-09-01T10:21:41.298Z,23.60
2022-09-01T10:28:24.456Z,28.20
2022-09-01T10:35:14.547Z,26.50
2022-09-01T10:42:04.536Z,25.60
2022-09-01T10:48:55.678Z,24.50
2022-09-01T10:55:59.587Z,24.10
2022-09-01T11:10:54.463Z,24.30
2022-09-01T11:17:39.859Z,24.40
2022-09-01T11:24:44.150Z,24.40
2022-09-01T11:31:41.882Z,24.20
2022-09-01T11:38:25.470Z,24.40
2022-09-01T11:45:22.070Z,24.30
2022-09-01T11:52:05.754Z,23.60
2022-09-01T11:58:48.127Z,23.90
2022-09-01T12:05:32.215Z,23.70
2022-09-01T12:12:35.908Z,23.70
2022-09-01T12:19:27.594Z,23.90
2022-09-01T12:26:16.224Z,24.20
2022-09-01T12:40:33.394Z,24.30
2022-09-01T12:47:34.047Z,24.40
2022-09-01T12:54:24.442Z,24.40
2022-09-01T13:01:16.208Z,24.80
2022-09-01T13:08:10.625Z,24.90
2022-09-01T13:14:53.034Z,24.60
2022-09-01T13:21:36.278Z,24.30
2022-09-01T13:28:20.420Z,24.70
2022-09-01T13:35:03.629Z,24.50
2022-09-01T13:41:47.109Z,24.30
2022-09-01T13:49:02.465Z,24.60
2022-09-01T13:55:34.731Z,23.90
2022-09-01T14:02:17.162Z,23.80
2022-09-01T14:09:00.748Z,23.80
2022-09-01T14:15:44.510Z,23.60
2022-09-01T14:22:26.966Z,23.80
2022-09-01T14:29:09.433Z,23.80
2022-09-01T14:35:51.792Z,23.70
2022-09-01T14:42:35.596Z,23.90
2022-09-01T14:49:22.496Z,24.10
2022-09-01T14:56:05.216Z,24.20
2022-09-01T15:02:48.427Z,24.20
2022-09-01T15:09:31.077Z,24.40
2022-09-01T15:16:19.560Z,24.60
2022-09-01T15:23:02.044Z,24.70
2022-09-01T15:29:48.888Z,24.30
2022-09-01T15:36:31.856Z,24.10
2022-09-01T15:43:14.223Z,23.90
2022-09-01T15:49:59.588Z,24.00
2022-09-01T15:56:45.034Z,23.90
2022-09-01T16:03:30.083Z,23.60
2022-09-01T16:10:12.775Z,23.50
2022-09-01T16:17:13.825Z,23.60
2022-09-01T16:23:56.288Z,23.80
2022-09-01T16:30:39.670Z,24.10
2022-09-01T16:37:59.452Z,23.90
2022-09-01T16:44:47.629Z,23.90
2022-09-01T16:51:43.260Z,23.80
2022-09-01T16:58:48.528Z,23.70
2022-09-01T17:05:45.545Z,23.40
2022-09-01T17:12:35.638Z,23.30
2022-09-01T17:19:20.306Z,23.30
2022-09-01T17:26:16.596Z,23.10
2022-09-01T17:33:17.272Z,22.80
2022-09-01T17:40:41.629Z,22.50
2022-09-01T17:47:38.735Z,22.30
2022-09-01T17:54:51.042Z,22.30
2022-09-01T18:02:12.547Z,22.10
2022-09-01T18:08:58.266Z,21.90
2022-09-01T18:15:57.261Z,21.60
2022-09-01T18:29:36.003Z,21.30
2022-09-01T18:36:39.555Z,21.10
2022-09-01T18:43:33.638Z,20.90
2022-09-01T18:50:32.106Z,20.70
2022-09-01T18:57:21.063Z,20.50
2022-09-01T19:04:39.363Z,20.20
2022-09-01T19:11:39.774Z,20.00
2022-09-01T19:18:39.530Z,19.90
2022-09-01T19:25:36.755Z,19.70
2022-09-01T19:32:22.315Z,19.60
2022-09-01T19:39:11.810Z,19.50
2022-09-01T19:46:11.825Z,19.30
2022-09-01T19:53:00.516Z,19.20
2022-09-01T19:59:42.837Z,19.00
2022-09-01T20:06:35.840Z,19.10
2022-09-01T20:13:24.878Z,18.90
2022-09-01T20:20:36.641Z,18.80
2022-09-01T20:27:24.772Z,18.70
2022-09-01T20:34:32.619Z,18.60
2022-09-01T20:41:43.002Z,18.60
2022-09-01T20:48:27.483Z,18.30
2022-09-01T20:55:35.789Z,18.30
2022-09-01T21:02:43.192Z,18.30
2022-09-01T21:09:49.798Z,18.20
2022-09-01T21:17:19.038Z,18.10
2022-09-01T21:24:05.322Z,17.90
2022-09-01T21:30:51.955Z,17.70
2022-09-01T21:37:35.060Z,17.50
2022-09-01T21:44:17.731Z,17.60
2022-09-01T21:51:00.508Z,17.70
2022-09-01T21:57:43.257Z,17.70
2022-09-01T22:04:25.614Z,17.40
2022-09-01T22:11:09.857Z,17.40
2022-09-01T22:17:53.366Z,17.20
2022-09-01T22:24:36.328Z,17.10
2022-09-01T22:31:20.669Z,16.80
2022-09-01T22:38:03.046Z,16.80
2022-09-01T22:44:45.383Z,16.30
2022-09-01T22:51:28.332Z,16.20
2022-09-01T22:58:11.248Z,16.30
2022-09-01T23:04:53.634Z,16.00
2022-09-01T23:11:36.451Z,16.00
2022-09-01T23:18:19.241Z,16.10
2022-09-01T23:25:01.678Z,16.10
2022-09-01T23:31:47.667Z,16.00
2022-09-01T23:38:31.725Z,15.90
2022-09-01T23:45:14.192Z,15.80
2022-09-01T23:51:56.808Z,15.70
2022-09-01T23:58:40.126Z,16.10
